createdAt,value
2019-05-07T00:01:42.309Z,7.59
2019-05-07T00:04:12.889Z,7.59
2019-05-07T00:06:43.441Z,7.59
2019-05-07T00:09:13.905Z,7.59
2019-05-07T00:11:42.965Z,7.59
2019-05-07T00:14:12.625Z,7.58
2019-05-07T00:16:42.433Z,7.59
2019-05-07T00:19:12.872Z,7.58
2019-05-07T00:21:42.428Z,7.58
2019-05-07T00:24:13.155Z,7.57
2019-05-07T00:26:43.168Z,7.57
2019-05-07T00:29:12.968Z,7.57
2019-05-07T00:31:42.265Z,7.57
2019-05-07T00:34:12.617Z,7.57
2019-05-07T00:36:49.776Z,7.55
2019-05-07T00:39:30.001Z,7.54
2019-05-07T00:42:07.474Z,7.53
2019-05-07T00:44:56.007Z,7.51
2019-05-07T00:47:25.076Z,7.51
2019-05-07T00:49:55.161Z,7.50
2019-05-07T00:52:24.221Z,7.49
2019-05-07T00:54:53.357Z,7.49
2019-05-07T00:57:22.954Z,7.47
2019-05-07T00:59:52.562Z,7.43
2019-05-07T01:02:23.138Z,7.40
2019-05-07T01:04:53.179Z,7.36
2019-05-07T01:07:23.025Z,7.32
2019-05-07T01:09:52.552Z,7.27
2019-05-07T01:12:22.325Z,7.23
2019-05-07T01:14:52.802Z,7.17
2019-05-07T01:17:22.836Z,7.14
2019-05-07T01:19:53.232Z,7.10
2019-05-07T01:22:22.477Z,7.09
2019-05-07T01:24:52.570Z,7.08
2019-05-07T01:27:22.590Z,7.08
2019-05-07T01:29:52.860Z,7.04
2019-05-07T01:32:33.009Z,7.03
2019-05-07T01:35:07.463Z,7.00
2019-05-07T01:37:36.579Z,6.98
2019-05-07T01:40:05.648Z,6.97
2019-05-07T01:42:36.618Z,6.97
2019-05-07T01:45:06.686Z,6.98
2019-05-07T01:47:35.768Z,6.96
2019-05-07T01:50:04.944Z,6.96
2019-05-07T01:52:34.030Z,6.95
2019-05-07T01:55:03.410Z,6.97
2019-05-07T01:57:32.841Z,6.96
2019-05-07T02:00:02.561Z,6.94
2019-05-07T02:02:42.562Z,6.97
2019-05-07T02:05:33.769Z,6.96
2019-05-07T02:08:06.698Z,6.96
2019-05-07T02:10:49.038Z,6.96
2019-05-07T02:13:18.095Z,6.97
2019-05-07T02:16:00.215Z,6.96
2019-05-07T02:18:17.972Z,6.96
2019-05-07T02:20:47.029Z,6.96
2019-05-07T02:23:16.111Z,6.96
2019-05-07T02:25:45.190Z,6.95
2019-05-07T02:28:14.272Z,6.95
2019-05-07T02:30:44.349Z,6.93
2019-05-07T02:33:14.096Z,6.91
2019-05-07T02:35:43.938Z,6.90
2019-05-07T02:38:23.026Z,6.90
2019-05-07T02:41:02.718Z,6.87
2019-05-07T02:43:33.451Z,6.86
2019-05-07T02:46:30.009Z,6.84
2019-05-07T02:49:10.248Z,6.85
2019-05-07T02:51:45.284Z,6.81
2019-05-07T02:54:24.245Z,6.80
2019-05-07T02:56:53.478Z,6.77
2019-05-07T02:59:23.507Z,6.76
2019-05-07T03:01:53.666Z,6.75
2019-05-07T03:04:25.099Z,6.73
2019-05-07T03:06:54.479Z,6.72
2019-05-07T03:09:23.708Z,6.72
2019-05-07T03:11:53.250Z,6.69
2019-05-07T03:14:23.311Z,6.66
2019-05-07T03:16:53.537Z,6.64
2019-05-07T03:19:24.266Z,6.63
2019-05-07T03:21:54.350Z,6.60
2019-05-07T03:24:46.925Z,6.57
2019-05-07T03:27:16.040Z,6.54
2019-05-07T03:29:53.516Z,6.52
2019-05-07T03:32:36.700Z,6.51
2019-05-07T03:35:27.297Z,6.50
2019-05-07T03:37:55.190Z,6.49
2019-05-07T03:40:24.254Z,6.48
2019-05-07T03:42:53.677Z,6.47
2019-05-07T03:45:38.768Z,6.47
2019-05-07T03:48:18.715Z,6.47
2019-05-07T03:50:47.781Z,6.46
2019-05-07T03:53:16.864Z,6.43
2019-05-07T03:55:45.942Z,6.43
2019-05-07T03:58:15.116Z,6.43
2019-05-07T04:00:44.822Z,6.44
2019-05-07T04:03:18.768Z,6.43
2019-05-07T04:05:44.720Z,6.42
2019-05-07T04:08:13.813Z,6.41
2019-05-07T04:10:44.381Z,6.40
2019-05-07T04:13:13.891Z,6.39
2019-05-07T04:15:44.095Z,6.37
2019-05-07T04:18:13.623Z,6.34
2019-05-07T04:20:43.772Z,6.33
2019-05-07T04:23:13.935Z,6.34
2019-05-07T04:25:53.038Z,6.33
2019-05-07T04:28:27.630Z,6.33
2019-05-07T04:30:57.575Z,6.32
2019-05-07T04:33:33.085Z,6.34
2019-05-07T04:36:07.576Z,6.34
2019-05-07T04:38:36.583Z,6.34
2019-05-07T04:41:05.665Z,6.35
2019-05-07T04:43:34.745Z,6.35
2019-05-07T04:46:03.902Z,6.36
2019-05-07T04:48:34.155Z,6.36
2019-05-07T04:51:05.077Z,6.37
2019-05-07T04:53:34.149Z,6.36
2019-05-07T04:56:03.558Z,6.38
2019-05-07T04:58:33.807Z,6.38
2019-05-07T05:01:04.623Z,6.38
2019-05-07T05:03:35.569Z,6.36
2019-05-07T05:06:04.467Z,6.36
2019-05-07T05:08:33.528Z,6.35
2019-05-07T05:11:03.575Z,6.33
2019-05-07T05:13:33.312Z,6.31
2019-05-07T05:16:22.459Z,6.27
2019-05-07T05:18:51.806Z,6.27
2019-05-07T05:21:52.840Z,6.23
2019-05-07T05:24:32.772Z,6.23
2019-05-07T05:27:02.587Z,6.21
2019-05-07T05:29:32.833Z,6.21
2019-05-07T05:32:02.383Z,6.19
2019-05-07T05:34:32.920Z,6.19
2019-05-07T05:37:02.543Z,6.20
2019-05-07T05:39:32.091Z,6.23
2019-05-07T05:42:12.228Z,6.24
2019-05-07T05:44:41.782Z,6.27
2019-05-07T05:47:11.952Z,6.28
2019-05-07T05:49:42.876Z,6.30
2019-05-07T05:52:19.259Z,6.34
2019-05-07T05:55:12.029Z,6.36
2019-05-07T05:58:02.689Z,6.39
2019-05-07T06:01:03.277Z,6.42
2019-05-07T06:03:44.318Z,6.43
2019-05-07T06:06:35.747Z,6.45
2019-05-07T06:09:44.093Z,6.47
2019-05-07T06:12:22.594Z,6.48
2019-05-07T06:15:16.567Z,6.48
2019-05-07T06:18:17.912Z,6.51
2019-05-07T06:21:00.408Z,6.54
2019-05-07T06:23:37.644Z,6.59
2019-05-07T06:26:06.738Z,6.60
2019-05-07T06:28:35.807Z,6.62
2019-05-07T06:31:04.886Z,6.62
2019-05-07T06:33:33.937Z,6.61
2019-05-07T06:36:03.047Z,6.63
2019-05-07T06:38:36.372Z,6.65
2019-05-07T06:41:25.357Z,6.69
2019-05-07T06:44:03.903Z,6.73
2019-05-07T06:46:32.984Z,6.76
2019-05-07T06:49:02.258Z,6.80
2019-05-07T06:51:32.875Z,6.84
2019-05-07T06:54:02.812Z,6.85
2019-05-07T06:56:32.611Z,6.88
2019-05-07T06:59:13.044Z,6.91
2019-05-07T07:01:59.371Z,6.93
2019-05-07T07:04:39.662Z,6.99
2019-05-07T07:07:27.320Z,7.01
2019-05-07T07:09:59.072Z,7.04
2019-05-07T07:12:29.299Z,7.07
2019-05-07T07:14:58.353Z,7.09
2019-05-07T07:17:27.427Z,7.10
2019-05-07T07:19:56.481Z,7.15
2019-05-07T07:22:25.563Z,7.17
2019-05-07T07:24:54.650Z,7.23
2019-05-07T07:27:23.715Z,7.27
2019-05-07T07:30:12.772Z,7.33
2019-05-07T07:32:43.173Z,7.39
2019-05-07T07:35:13.931Z,7.46
2019-05-07T07:37:43.150Z,7.53
2019-05-07T07:40:48.607Z,7.63
2019-05-07T07:43:17.687Z,7.71
2019-05-07T07:45:46.737Z,7.82
2019-05-07T07:48:15.813Z,7.91
2019-05-07T07:50:44.871Z,7.98
2019-05-07T07:53:13.956Z,8.07
2019-05-07T07:56:02.593Z,8.13
2019-05-07T07:58:52.429Z,8.18
2019-05-07T08:01:28.779Z,8.27
2019-05-07T08:03:57.840Z,8.30
2019-05-07T08:06:29.331Z,8.29
2019-05-07T08:08:58.429Z,8.29
2019-05-07T08:11:27.503Z,8.28
2019-05-07T08:13:56.569Z,8.27
2019-05-07T08:16:25.623Z,8.23
2019-05-07T08:18:54.806Z,8.19
2019-05-07T08:21:23.871Z,8.18
2019-05-07T08:23:53.020Z,8.26
2019-05-07T08:26:22.072Z,8.39
2019-05-07T08:28:52.376Z,8.55
2019-05-07T08:31:32.031Z,8.72
2019-05-07T08:34:14.244Z,8.86
2019-05-07T08:36:43.390Z,8.88
2019-05-07T08:39:13.053Z,8.87
2019-05-07T08:41:42.417Z,8.82
2019-05-07T08:44:16.090Z,8.78
2019-05-07T08:47:16.580Z,8.83
2019-05-07T08:49:45.642Z,8.94
2019-05-07T08:52:14.702Z,9.06
2019-05-07T08:54:43.767Z,9.19
2019-05-07T08:57:12.928Z,9.24
2019-05-07T08:59:46.738Z,9.25
2019-05-07T09:02:12.864Z,9.21
2019-05-07T09:04:42.002Z,9.23
2019-05-07T09:07:13.057Z,9.31
2019-05-07T09:09:42.686Z,9.43
2019-05-07T09:12:12.515Z,9.53
2019-05-07T09:14:42.637Z,9.57
2019-05-07T09:17:12.728Z,9.62
2019-05-07T09:19:50.692Z,9.73
2019-05-07T09:22:12.979Z,9.87
2019-05-07T09:24:42.597Z,9.97
2019-05-07T09:27:22.156Z,10.00
2019-05-07T09:30:28.404Z,10.04
2019-05-07T09:36:24.661Z,10.26
2019-05-07T09:38:59.359Z,10.39
2019-05-07T09:41:27.821Z,10.49
2019-05-07T09:43:59.808Z,10.61
2019-05-07T09:46:28.870Z,10.71
2019-05-07T09:48:57.940Z,10.73
2019-05-07T09:51:27.002Z,10.69
2019-05-07T09:53:56.077Z,10.66
2019-05-07T09:56:25.127Z,10.64
2019-05-07T09:58:54.218Z,10.63
2019-05-07T10:01:23.647Z,10.66
2019-05-07T10:03:52.977Z,10.66
2019-05-07T10:06:22.925Z,10.63
2019-05-07T10:08:52.429Z,10.59
2019-05-07T10:11:34.346Z,10.58
2019-05-07T10:14:07.424Z,10.67
2019-05-07T10:16:45.968Z,10.82
2019-05-07T10:19:15.045Z,10.98
2019-05-07T10:21:44.212Z,11.16
2019-05-07T10:24:13.302Z,11.13
2019-05-07T10:26:42.878Z,11.10
2019-05-07T10:29:12.602Z,11.09
2019-05-07T10:31:42.417Z,11.22
2019-05-07T10:34:12.312Z,11.40
2019-05-07T10:36:42.175Z,11.55
2019-05-07T10:39:12.904Z,11.66
2019-05-07T10:41:42.543Z,11.84
2019-05-07T10:44:12.754Z,11.94
2019-05-07T10:47:01.994Z,12.04
2019-05-07T10:49:37.860Z,12.16
2019-05-07T10:52:06.928Z,12.34
2019-05-07T10:54:36.000Z,12.55
2019-05-07T10:57:05.064Z,12.77
2019-05-07T10:59:34.163Z,12.96
2019-05-07T11:02:21.938Z,13.10
2019-05-07T11:04:53.060Z,13.14
2019-05-07T11:07:22.280Z,13.25
2019-05-07T11:09:52.515Z,13.24
2019-05-07T11:12:24.936Z,13.28
2019-05-07T11:14:54.007Z,13.26
2019-05-07T11:17:33.497Z,13.19
2019-05-07T11:20:02.587Z,13.16
2019-05-07T11:22:32.781Z,13.26
2019-05-07T11:25:03.084Z,13.35
2019-05-07T11:27:33.057Z,13.51
2019-05-07T11:30:02.803Z,13.78
2019-05-07T11:32:32.210Z,14.05
2019-05-07T11:35:03.157Z,14.12
2019-05-07T11:37:32.146Z,14.15
2019-05-07T11:40:03.210Z,14.31
2019-05-07T11:42:54.113Z,14.41
2019-05-07T11:45:28.985Z,14.53
2019-05-07T11:47:58.041Z,14.67
2019-05-07T11:50:42.308Z,14.99
2019-05-07T11:53:12.292Z,15.33
2019-05-07T11:55:42.045Z,15.68
2019-05-07T11:58:12.876Z,15.94
2019-05-07T12:00:51.138Z,16.08
2019-05-07T12:03:22.133Z,16.32
2019-05-07T12:05:52.650Z,16.52
2019-05-07T12:08:23.707Z,16.74
2019-05-07T12:10:52.695Z,17.00
2019-05-07T12:13:21.970Z,17.26
2019-05-07T12:15:52.082Z,17.41
2019-05-07T12:18:22.762Z,17.41
2019-05-07T12:20:54.108Z,17.40
2019-05-07T12:23:22.884Z,17.38
2019-05-07T12:25:52.848Z,17.29
2019-05-07T12:28:22.641Z,17.27
2019-05-07T12:31:08.627Z,17.47
2019-05-07T12:33:47.252Z,17.51
2019-05-07T12:36:16.313Z,17.65
2019-05-07T12:38:45.362Z,17.91
2019-05-07T12:41:29.886Z,18.17
2019-05-07T12:43:59.925Z,18.25
2019-05-07T12:46:29.404Z,18.27
2019-05-07T12:48:58.463Z,18.22
2019-05-07T12:51:36.378Z,18.31
2019-05-07T12:54:03.470Z,18.59
2019-05-07T12:56:32.564Z,18.84
2019-05-07T12:59:02.211Z,18.95
2019-05-07T13:01:52.082Z,19.23
2019-05-07T13:04:23.864Z,19.38
2019-05-07T13:06:59.335Z,19.42
2019-05-07T13:09:28.382Z,19.48
2019-05-07T13:11:57.466Z,19.47
2019-05-07T13:14:26.515Z,19.38
2019-05-07T13:16:55.593Z,19.37
2019-05-07T13:19:24.645Z,19.16
2019-05-07T13:21:53.699Z,18.85
2019-05-07T13:24:22.956Z,18.53
2019-05-07T13:26:52.043Z,18.34
2019-05-07T13:29:22.217Z,18.17
2019-05-07T13:31:54.320Z,18.04
2019-05-07T13:34:23.692Z,18.04
2019-05-07T13:36:57.385Z,17.94
2019-05-07T13:39:43.139Z,17.93
2019-05-07T13:42:31.944Z,17.88
2019-05-07T13:45:23.264Z,17.94
2019-05-07T13:48:02.827Z,17.97
2019-05-07T13:50:32.672Z,18.12
2019-05-07T13:53:01.834Z,18.21
2019-05-07T13:55:32.366Z,18.22
2019-05-07T13:58:01.534Z,18.11
2019-05-07T14:00:35.629Z,18.06
2019-05-07T14:03:04.813Z,18.11
2019-05-07T14:05:33.860Z,18.22
2019-05-07T14:08:04.664Z,18.22
2019-05-07T14:10:33.930Z,18.11
2019-05-07T14:13:12.660Z,18.11
2019-05-07T14:15:35.005Z,18.10
2019-05-07T14:18:04.403Z,18.03
2019-05-07T14:20:33.455Z,17.87
2019-05-07T14:23:02.505Z,17.72
2019-05-07T14:25:32.535Z,17.60
2019-05-07T14:28:02.294Z,17.59
2019-05-07T14:30:32.787Z,17.55
2019-05-07T14:33:15.219Z,17.50
2019-05-07T14:35:52.051Z,17.45
2019-05-07T14:38:25.347Z,17.50
2019-05-07T14:40:54.372Z,17.54
2019-05-07T14:43:48.307Z,17.56
2019-05-07T14:46:17.358Z,17.54
2019-05-07T14:48:46.514Z,17.53
2019-05-07T14:51:15.511Z,17.51
2019-05-07T14:53:44.558Z,17.50
2019-05-07T14:56:14.259Z,17.48
2019-05-07T14:58:44.051Z,17.42
2019-05-07T15:01:13.149Z,17.32
2019-05-07T15:03:42.364Z,17.24
2019-05-07T15:06:12.590Z,17.13
2019-05-07T15:08:42.897Z,16.99
2019-05-07T15:11:12.179Z,16.86
2019-05-07T15:13:42.730Z,16.72
2019-05-07T15:16:12.601Z,16.60
2019-05-07T15:18:52.941Z,16.52
2019-05-07T15:21:22.589Z,16.42
2019-05-07T15:23:53.335Z,16.33
2019-05-07T15:26:22.566Z,16.24
2019-05-07T15:29:06.061Z,16.19
2019-05-07T15:31:52.915Z,16.21
2019-05-07T15:34:22.235Z,16.28
2019-05-07T15:36:52.713Z,16.36
2019-05-07T15:39:22.321Z,16.39
2019-05-07T15:41:51.858Z,16.34
2019-05-07T15:44:20.998Z,16.27
2019-05-07T15:46:51.916Z,16.20
2019-05-07T15:49:21.654Z,16.05
2019-05-07T15:51:53.152Z,15.93
2019-05-07T15:54:22.328Z,15.74
2019-05-07T15:56:53.290Z,15.60
2019-05-07T15:59:22.784Z,15.50
2019-05-07T16:01:53.993Z,15.43
2019-05-07T16:04:25.793Z,15.43
2019-05-07T16:06:55.208Z,15.43
2019-05-07T16:09:24.272Z,15.49
2019-05-07T16:11:53.355Z,15.46
2019-05-07T16:14:26.798Z,15.38
2019-05-07T16:17:02.834Z,15.33
2019-05-07T16:19:32.220Z,15.32
2019-05-07T16:22:06.251Z,15.31
2019-05-07T16:24:35.324Z,15.27
2019-05-07T16:27:05.219Z,15.15
2019-05-07T16:29:35.911Z,15.01
2019-05-07T16:32:05.175Z,14.81
2019-05-07T16:34:34.221Z,14.66
2019-05-07T16:37:06.848Z,14.48
2019-05-07T16:39:34.090Z,14.35
2019-05-07T16:42:03.166Z,14.25
2019-05-07T16:44:33.123Z,14.17
2019-05-07T16:47:02.840Z,14.08
2019-05-07T16:49:32.037Z,13.99
2019-05-07T16:52:01.822Z,13.91
2019-05-07T16:54:31.072Z,13.88
2019-05-07T16:57:31.818Z,13.77
2019-05-07T17:00:12.746Z,13.65
2019-05-07T17:02:45.023Z,13.50
2019-05-07T17:05:15.044Z,13.43
2019-05-07T17:08:02.578Z,13.41
2019-05-07T17:10:31.967Z,13.35
2019-05-07T17:13:02.872Z,13.26
2019-05-07T17:15:33.689Z,13.23
2019-05-07T17:18:03.024Z,13.20
2019-05-07T17:20:32.705Z,13.18
2019-05-07T17:23:02.959Z,13.21
2019-05-07T17:25:38.382Z,13.18
2019-05-07T17:28:07.851Z,13.17
2019-05-07T17:30:37.717Z,13.13
2019-05-07T17:33:07.280Z,13.07
2019-05-07T17:35:36.333Z,12.98
2019-05-07T17:38:09.103Z,12.93
2019-05-07T17:40:36.220Z,12.90
2019-05-07T17:43:05.298Z,12.83
2019-05-07T17:45:34.344Z,12.80
2019-05-07T17:48:03.426Z,12.76
2019-05-07T17:50:38.646Z,12.70
2019-05-07T17:53:07.730Z,12.65
2019-05-07T17:55:36.778Z,12.61
2019-05-07T17:58:05.843Z,12.54
2019-05-07T18:00:34.887Z,12.44
2019-05-07T18:03:32.280Z,12.41
2019-05-07T18:06:02.376Z,12.34
2019-05-07T18:08:32.677Z,12.28
2019-05-07T18:11:02.559Z,12.24
2019-05-07T18:13:32.526Z,12.20
2019-05-07T18:16:08.409Z,12.15
2019-05-07T18:18:37.488Z,12.11
2019-05-07T18:21:06.542Z,12.11
2019-05-07T18:23:35.689Z,12.10
2019-05-07T18:26:04.924Z,12.07
2019-05-07T18:28:34.027Z,12.01
2019-05-07T18:31:03.070Z,11.93
2019-05-07T18:33:38.382Z,11.85
2019-05-07T18:36:07.437Z,11.78
2019-05-07T18:38:36.535Z,11.72
2019-05-07T18:41:05.679Z,11.66
2019-05-07T18:43:34.817Z,11.60
2019-05-07T18:46:03.866Z,11.54
2019-05-07T18:48:32.940Z,11.48
2019-05-07T18:51:02.720Z,11.41
2019-05-07T18:53:31.925Z,11.37
2019-05-07T18:56:01.744Z,11.29
2019-05-07T18:58:31.935Z,11.22
2019-05-07T19:01:04.268Z,11.11
2019-05-07T19:03:33.351Z,11.02
2019-05-07T19:06:02.891Z,10.98
2019-05-07T19:08:32.650Z,10.93
2019-05-07T19:11:05.687Z,10.91
2019-05-07T19:13:33.562Z,10.88
2019-05-07T19:16:03.000Z,10.84
2019-05-07T19:18:32.358Z,10.77
2019-05-07T19:21:01.328Z,10.70
2019-05-07T19:23:30.334Z,10.63
2019-05-07T19:25:59.395Z,10.57
2019-05-07T19:28:28.467Z,10.52
2019-05-07T19:30:57.519Z,10.44
2019-05-07T19:33:27.331Z,10.39
2019-05-07T19:35:56.518Z,10.37
2019-05-07T19:38:25.512Z,10.34
2019-05-07T19:40:54.600Z,10.30
2019-05-07T19:43:23.649Z,10.27
2019-05-07T19:45:52.736Z,10.21
2019-05-07T19:48:23.155Z,10.18
2019-05-07T19:50:52.806Z,10.14
2019-05-07T19:53:23.466Z,10.08
2019-05-07T19:56:08.333Z,10.05
2019-05-07T19:58:37.410Z,10.01
2019-05-07T20:01:07.851Z,9.96
2019-05-07T20:03:36.899Z,9.91
2019-05-07T20:06:05.973Z,9.85
2019-05-07T20:08:34.954Z,9.79
2019-05-07T20:11:12.049Z,9.74
2019-05-07T20:13:43.625Z,9.70
2019-05-07T20:16:15.607Z,9.66
2019-05-07T20:18:44.650Z,9.64
2019-05-07T20:21:13.727Z,9.60
2019-05-07T20:23:43.370Z,9.57
2019-05-07T20:26:12.796Z,9.53
2019-05-07T20:28:41.975Z,9.49
2019-05-07T20:31:12.256Z,9.46
2019-05-07T20:33:42.304Z,9.41
2019-05-07T20:36:11.567Z,9.37
2019-05-07T20:38:42.547Z,9.32
2019-05-07T20:41:12.904Z,9.28
2019-05-07T20:43:42.863Z,9.21
2019-05-07T20:46:12.182Z,9.14
2019-05-07T20:48:42.293Z,9.11
2019-05-07T20:51:12.519Z,9.06
2019-05-07T20:53:56.708Z,9.02
2019-05-07T20:56:28.719Z,8.97
2019-05-07T20:58:57.767Z,8.89
2019-05-07T21:01:26.847Z,8.84
2019-05-07T21:03:55.816Z,8.81
2019-05-07T21:06:24.889Z,8.75
2019-05-07T21:08:53.944Z,8.69
2019-05-07T21:11:23.048Z,8.64
2019-05-07T21:13:52.479Z,8.59
2019-05-07T21:16:22.179Z,8.54
2019-05-07T21:18:52.868Z,8.50
2019-05-07T21:21:22.034Z,8.44
2019-05-07T21:23:52.749Z,8.40
2019-05-07T21:26:22.574Z,8.37
2019-05-07T21:28:52.828Z,8.33
2019-05-07T21:31:22.772Z,8.31
2019-05-07T21:33:52.482Z,8.28
2019-05-07T21:36:22.837Z,8.23
2019-05-07T21:38:52.103Z,8.21
2019-05-07T21:41:22.622Z,8.17
2019-05-07T21:43:52.848Z,8.12
2019-05-07T21:46:22.314Z,8.07
2019-05-07T21:48:53.628Z,8.03
2019-05-07T21:51:22.960Z,7.99
2019-05-07T21:54:04.708Z,7.95
2019-05-07T21:56:54.580Z,7.93
2019-05-07T21:59:25.177Z,7.89
2019-05-07T22:02:02.217Z,7.86
2019-05-07T22:04:31.025Z,7.82
2019-05-07T22:07:00.013Z,7.79
2019-05-07T22:09:29.064Z,7.75
2019-05-07T22:11:58.135Z,7.73
2019-05-07T22:14:27.195Z,7.69
2019-05-07T22:16:56.266Z,7.67
2019-05-07T22:19:25.311Z,7.65
2019-05-07T22:21:54.378Z,7.63
2019-05-07T22:24:23.426Z,7.63
2019-05-07T22:26:52.494Z,7.61
2019-05-07T22:29:22.737Z,7.59
2019-05-07T22:32:15.849Z,7.57
2019-05-07T22:35:02.821Z,7.55
2019-05-07T22:37:32.518Z,7.53
2019-05-07T22:40:02.767Z,7.53
2019-05-07T22:42:32.693Z,7.53
2019-05-07T22:45:02.842Z,7.51
2019-05-07T22:47:32.616Z,7.52
2019-05-07T22:50:02.856Z,7.51
2019-05-07T22:52:32.644Z,7.51
2019-05-07T22:55:01.863Z,7.50
2019-05-07T22:57:37.111Z,7.47
2019-05-07T23:00:08.440Z,7.47
2019-05-07T23:02:37.519Z,7.45
2019-05-07T23:05:06.927Z,7.45
2019-05-07T23:07:36.008Z,7.44
2019-05-07T23:10:05.577Z,7.43
2019-05-07T23:12:34.642Z,7.43
2019-05-07T23:15:03.798Z,7.43
2019-05-07T23:17:32.900Z,7.42
2019-05-07T23:20:01.985Z,7.39
2019-05-07T23:22:32.431Z,7.38
2019-05-07T23:25:01.603Z,7.35
2019-05-07T23:27:32.504Z,7.34
2019-05-07T23:30:02.615Z,7.32
2019-05-07T23:32:32.929Z,7.28
2019-05-07T23:35:02.342Z,7.25
2019-05-07T23:37:33.110Z,7.22
2019-05-07T23:40:05.777Z,7.19
2019-05-07T23:42:36.422Z,7.19
2019-05-07T23:45:06.178Z,7.16
2019-05-07T23:47:35.154Z,7.13
2019-05-07T23:50:04.500Z,7.08
2019-05-07T23:52:33.463Z,7.05
2019-05-07T23:55:02.929Z,7.02
2019-05-07T23:57:32.629Z,6.99
